Etusivu
METAR-TAF:

METAR-TAF

Lentoasemat :

Hastings Municipal Airport

Hastings, Nebraska, Yhdysvallat

Leveyspiiri: 40-36-02N, Pituuspiiri: 098-25-33W, korkeus merenpinnasta: 595 m

Tämänhetkinen sää

Tämä raportti tehtiin 42 minuuttia sitten, kello 14.53 UTC
Tuuli 14 kn idästä/kaakosta puuskistuen 23 kn:hen
Lämpötila 26°C
Kosteus 42%
Ilmanpaine 1020 hPa
Näkyvyys: 16.1 km
selkeää

METAR: KHSI 141453Z AUTO 11014G23KT 10SM CLR 26/12 A3011 RMK AO2 SLP178 T02560117 55004

Aika: 10:35 (15:35 UTC)


TAF: puuttuu

Säähavainnot ja -ennusteet yli 4000 lentoasemalta (METAR- ja TAF-raportit).

Käytössä olevat sääasemat on merkitty karttaan keltaisilla ja punaisilla pisteillä.

Aseta hiiri pisteen päälle nähdäksesi sääaseman nimen.

Klikkaa sitten nähdäksesi säähavainnot ja -ennusteet.

Kartan vaihtaminen: klikkaa mustalla rastilla varustettuja vihreitä pisteitä, niin voit zoomata sisään; viivalla varustettua vihreää pistettä, niin voit zoomata ulos tai vihreitä nuolia, niin pääset viereisille kartoille.


METAR-TAF: